createdAt,value
2018-07-08T00:01:04.881Z,100683.09
2018-07-08T00:03:33.052Z,100686.25
2018-07-08T00:06:01.135Z,100685.69
2018-07-08T00:08:29.227Z,100689.59
2018-07-08T00:10:58.976Z,100682.29
2018-07-08T00:13:27.940Z,100684.80
2018-07-08T00:15:56.067Z,100686.44
2018-07-08T00:18:24.843Z,100692.08
2018-07-08T00:20:54.137Z,100688.30
2018-07-08T00:23:22.936Z,100687.05
2018-07-08T00:25:51.036Z,100687.70
2018-07-08T00:28:19.182Z,100688.77
2018-07-08T00:30:47.297Z,100690.70
2018-07-08T00:33:15.384Z,100694.58
2018-07-08T00:35:43.464Z,100695.41
2018-07-08T00:38:11.624Z,100700.51
2018-07-08T00:40:39.730Z,100693.91
2018-07-08T00:43:07.825Z,100696.34
2018-07-08T00:45:35.910Z,100692.31
2018-07-08T00:48:04.013Z,100689.66
2018-07-08T00:50:32.129Z,100696.53
2018-07-08T00:53:00.264Z,100694.27
2018-07-08T00:55:28.372Z,100686.48
2018-07-08T00:57:56.456Z,100686.78
2018-07-08T01:00:29.344Z,100694.70
2018-07-08T01:02:58.195Z,100696.42
2018-07-08T01:05:26.485Z,100707.78
2018-07-08T01:07:54.585Z,100704.28
2018-07-08T01:10:22.764Z,100704.92
2018-07-08T01:12:50.877Z,100704.01
2018-07-08T01:15:18.971Z,100711.03
2018-07-08T01:17:47.039Z,100701.71
2018-07-08T01:20:15.133Z,100709.97
2018-07-08T01:22:43.285Z,100702.75
2018-07-08T01:25:14.782Z,100708.00
2018-07-08T01:27:42.866Z,100713.11
2018-07-08T01:30:12.467Z,100709.20
2018-07-08T01:32:40.613Z,100714.80
2018-07-08T01:35:08.704Z,100712.08
2018-07-08T01:37:36.811Z,100704.66
2018-07-08T01:40:05.171Z,100709.97
2018-07-08T01:42:33.259Z,100709.64
2018-07-08T01:45:01.710Z,100708.79
2018-07-08T01:47:29.874Z,100706.73
2018-07-08T01:49:58.487Z,100708.23
2018-07-08T01:52:26.854Z,100716.71
2018-07-08T01:54:55.635Z,100716.86
2018-07-08T01:57:24.570Z,100719.42
2018-07-08T01:59:53.007Z,100718.64
2018-07-08T02:02:21.709Z,100721.37
2018-07-08T02:04:50.399Z,100720.48
2018-07-08T02:07:18.527Z,100717.53
2018-07-08T02:09:47.154Z,100724.55
2018-07-08T02:12:15.435Z,100724.48
2018-07-08T02:14:43.820Z,100735.55
2018-07-08T02:17:11.966Z,100729.06
2018-07-08T02:19:40.093Z,100731.94
2018-07-08T02:22:08.182Z,100730.92
2018-07-08T02:24:36.255Z,100736.56
2018-07-08T02:27:04.497Z,100731.45
2018-07-08T02:29:32.951Z,100734.89
2018-07-08T02:32:01.040Z,100727.53
2018-07-08T02:34:29.140Z,100729.34
2018-07-08T02:36:57.380Z,100731.25
2018-07-08T02:39:25.567Z,100726.02
2018-07-08T02:41:53.949Z,100730.36
2018-07-08T02:44:22.186Z,100735.42
2018-07-08T02:46:50.427Z,100734.84
2018-07-08T02:49:19.220Z,100736.70
2018-07-08T02:51:47.860Z,100733.81
2018-07-08T02:54:16.627Z,100741.70
2018-07-08T02:56:44.751Z,100743.69
2018-07-08T02:59:12.958Z,100747.56
2018-07-08T03:01:41.049Z,100743.39
2018-07-08T03:04:09.131Z,100740.55
2018-07-08T03:06:37.218Z,100738.55
2018-07-08T03:09:06.371Z,100742.86
2018-07-08T03:11:34.618Z,100738.55
2018-07-08T03:14:02.779Z,100739.21
2018-07-08T03:16:30.935Z,100745.80
2018-07-08T03:18:59.116Z,100738.19
2018-07-08T03:21:27.378Z,100738.59
2018-07-08T03:23:55.470Z,100741.92
2018-07-08T03:26:23.573Z,100738.87
2018-07-08T03:28:51.667Z,100743.48
2018-07-08T03:31:19.744Z,100737.09
2018-07-08T03:33:47.840Z,100736.60
2018-07-08T03:36:16.554Z,100739.05
2018-07-08T03:38:44.733Z,100743.91
2018-07-08T03:41:12.836Z,100743.16
2018-07-08T03:43:40.939Z,100743.62
2018-07-08T03:46:09.118Z,100739.64
2018-07-08T03:48:37.521Z,100741.72
2018-07-08T03:51:06.231Z,100742.72
2018-07-08T03:53:34.295Z,100746.13
2018-07-08T03:56:02.449Z,100739.34
2018-07-08T03:58:31.071Z,100733.92
2018-07-08T04:00:59.258Z,100743.48
2018-07-08T04:03:27.383Z,100745.66
2018-07-08T04:05:55.783Z,100746.59
2018-07-08T04:08:23.831Z,100745.48
2018-07-08T04:10:52.131Z,100747.96
2018-07-08T04:13:20.234Z,100741.36
2018-07-08T04:15:48.319Z,100746.88
2018-07-08T04:18:16.519Z,100750.08
2018-07-08T04:20:44.591Z,100756.92
2018-07-08T04:23:12.635Z,100759.79
2018-07-08T04:25:40.685Z,100761.83
2018-07-08T04:28:08.787Z,100760.13
2018-07-08T04:30:36.836Z,100763.92
2018-07-08T04:33:04.896Z,100764.77
2018-07-08T04:35:32.947Z,100768.91
2018-07-08T04:38:01.009Z,100764.13
2018-07-08T04:40:29.284Z,100766.09
2018-07-08T04:42:57.379Z,100766.00
2018-07-08T04:45:25.495Z,100764.71
2018-07-08T04:47:53.527Z,100764.88
2018-07-08T04:50:21.602Z,100770.01
2018-07-08T04:52:49.652Z,100773.17
2018-07-08T04:55:17.682Z,100775.51
2018-07-08T04:57:45.779Z,100778.56
2018-07-08T05:00:13.852Z,100776.02
2018-07-08T05:02:41.926Z,100784.19
2018-07-08T05:05:09.983Z,100787.38
2018-07-08T05:07:38.051Z,100790.18
2018-07-08T05:10:06.167Z,100790.50
2018-07-08T05:12:34.265Z,100791.19
2018-07-08T05:15:02.624Z,100798.00
2018-07-08T05:17:30.686Z,100796.84
2018-07-08T05:19:59.318Z,100793.52
2018-07-08T05:22:27.399Z,100795.39
2018-07-08T05:24:55.471Z,100797.44
2018-07-08T05:27:23.548Z,100798.25
2018-07-08T05:29:51.632Z,100800.59
2018-07-08T05:32:19.683Z,100803.35
2018-07-08T05:34:47.752Z,100800.12
2018-07-08T05:37:15.815Z,100802.54
2018-07-08T05:39:43.881Z,100800.42
2018-07-08T05:42:11.949Z,100804.39
2018-07-08T05:44:40.021Z,100805.92
2018-07-08T05:47:08.076Z,100806.71
2018-07-08T05:49:36.156Z,100803.56
2018-07-08T05:52:04.210Z,100806.34
2018-07-08T05:54:32.288Z,100801.54
2018-07-08T05:57:00.399Z,100802.54
2018-07-08T05:59:28.493Z,100802.09
2018-07-08T06:01:56.560Z,100801.54
2018-07-08T06:04:24.622Z,100805.45
2018-07-08T06:06:52.695Z,100806.91
2018-07-08T06:09:20.775Z,100811.83
2018-07-08T06:11:48.850Z,100803.42
2018-07-08T06:14:16.882Z,100810.81
2018-07-08T06:16:44.964Z,100811.58
2018-07-08T06:19:13.043Z,100802.53
2018-07-08T06:21:41.127Z,100811.55
2018-07-08T06:24:09.197Z,100813.17
2018-07-08T06:26:37.254Z,100809.61
2018-07-08T06:29:05.475Z,100813.71
2018-07-08T06:31:33.647Z,100800.74
2018-07-08T06:34:01.714Z,100807.08
2018-07-08T06:36:29.779Z,100800.55
2018-07-08T06:38:57.908Z,100798.67
2018-07-08T06:41:26.026Z,100801.73
2018-07-08T06:43:54.140Z,100803.30
2018-07-08T06:46:22.238Z,100799.82
2018-07-08T06:48:50.311Z,100805.64
2018-07-08T06:51:18.388Z,100803.05
2018-07-08T06:53:46.574Z,100802.95
2018-07-08T06:56:14.730Z,100802.23
2018-07-08T06:58:42.799Z,100803.11
2018-07-08T07:01:10.871Z,100800.11
2018-07-08T07:03:38.987Z,100801.06
2018-07-08T07:06:07.071Z,100801.81
2018-07-08T07:08:35.167Z,100804.80
2018-07-08T07:11:03.236Z,100809.67
2018-07-08T07:13:31.316Z,100807.16
2018-07-08T07:15:59.925Z,100796.04
2018-07-08T07:18:28.008Z,100793.88
2018-07-08T07:20:56.065Z,100806.69
2018-07-08T07:23:24.131Z,100807.78
2018-07-08T07:25:52.190Z,100803.11
2018-07-08T07:28:20.271Z,100804.72
2018-07-08T07:30:48.335Z,100791.27
2018-07-08T07:33:16.392Z,100790.77
2018-07-08T07:35:44.455Z,100789.08
2018-07-08T07:38:12.517Z,100787.81
2018-07-08T07:40:40.575Z,100782.30
2018-07-08T07:43:08.635Z,100788.20
2018-07-08T07:45:36.703Z,100783.78
2018-07-08T07:48:05.525Z,100785.87
2018-07-08T07:50:33.583Z,100783.27
2018-07-08T07:53:01.656Z,100784.97
2018-07-08T07:55:30.013Z,100788.77
2018-07-08T07:57:58.073Z,100779.78
2018-07-08T08:00:26.139Z,100790.70
2018-07-08T08:02:54.212Z,100782.37
2018-07-08T08:05:22.292Z,100788.59
2018-07-08T08:07:50.453Z,100784.77
2018-07-08T08:10:18.575Z,100785.32
2018-07-08T08:12:46.647Z,100778.74
2018-07-08T08:15:14.723Z,100776.56
2018-07-08T08:17:42.794Z,100778.84
2018-07-08T08:20:11.131Z,100775.33
2018-07-08T08:22:39.188Z,100770.69
2018-07-08T08:25:07.279Z,100777.20
2018-07-08T08:27:35.354Z,100778.91
2018-07-08T08:30:03.424Z,100778.02
2018-07-08T08:32:31.498Z,100774.52
2018-07-08T08:35:01.402Z,100777.62
2018-07-08T08:38:00.764Z,100782.87
2018-07-08T08:40:30.111Z,100776.83
2018-07-08T08:42:58.207Z,100775.95
2018-07-08T08:45:27.688Z,100775.06
2018-07-08T08:47:55.763Z,100771.60
2018-07-08T08:50:23.827Z,100775.58
2018-07-08T08:52:51.914Z,100777.37
2018-07-08T08:55:20.048Z,100774.70
2018-07-08T08:57:48.171Z,100779.89
2018-07-08T09:00:18.272Z,100780.00
2018-07-08T09:02:46.392Z,100774.86
2018-07-08T09:05:14.469Z,100781.31
2018-07-08T09:07:42.617Z,100782.66
2018-07-08T09:10:10.674Z,100774.42
2018-07-08T09:12:38.757Z,100782.70
2018-07-08T09:15:06.844Z,100780.08
2018-07-08T09:17:34.912Z,100785.66
2018-07-08T09:20:03.010Z,100780.92
2018-07-08T09:22:31.103Z,100777.11
2018-07-08T09:24:59.206Z,100770.61
2018-07-08T09:27:27.376Z,100781.88
2018-07-08T09:29:55.450Z,100771.04
2018-07-08T09:32:23.533Z,100766.71
2018-07-08T09:34:51.620Z,100773.21
2018-07-08T09:37:19.708Z,100766.71
2018-07-08T09:39:48.096Z,100765.43
2018-07-08T09:42:16.159Z,100771.09
2018-07-08T09:44:44.348Z,100768.89
2018-07-08T09:47:13.293Z,100765.83
2018-07-08T09:49:41.398Z,100767.12
2018-07-08T09:52:09.492Z,100763.67
2018-07-08T09:54:37.581Z,100756.73
2018-07-08T09:57:05.689Z,100752.88
2018-07-08T09:59:33.761Z,100750.67
2018-07-08T10:02:01.823Z,100749.37
2018-07-08T10:04:30.592Z,100748.95
2018-07-08T10:06:58.771Z,100757.17
2018-07-08T10:09:26.823Z,100752.41
2018-07-08T10:11:54.887Z,100751.50
2018-07-08T10:14:24.137Z,100755.39
2018-07-08T10:16:52.205Z,100749.29
2018-07-08T10:19:20.920Z,100752.31
2018-07-08T10:21:48.997Z,100752.75
2018-07-08T10:24:17.139Z,100739.28
2018-07-08T10:26:46.657Z,100751.42
2018-07-08T10:29:17.282Z,100750.97
2018-07-08T10:31:51.400Z,100750.48
2018-07-08T10:34:19.759Z,100753.13
2018-07-08T10:36:47.899Z,100755.41
2018-07-08T10:39:16.554Z,100743.72
2018-07-08T10:41:44.643Z,100747.52
2018-07-08T10:44:13.072Z,100744.94
2018-07-08T10:46:41.683Z,100747.47
2018-07-08T10:49:10.146Z,100750.45
2018-07-08T10:51:38.275Z,100739.56
2018-07-08T10:54:06.819Z,100742.98
2018-07-08T10:56:34.894Z,100741.22
2018-07-08T10:59:02.967Z,100737.17
2018-07-08T11:01:31.140Z,100735.39
2018-07-08T11:03:59.229Z,100731.81
2018-07-08T11:06:27.291Z,100719.27
2018-07-08T11:08:55.358Z,100723.58
2018-07-08T11:11:23.475Z,100729.66
2018-07-08T11:13:51.539Z,100730.48
2018-07-08T11:16:19.622Z,100726.73
2018-07-08T11:18:47.740Z,100724.22
2018-07-08T11:21:15.860Z,100721.04
2018-07-08T11:23:43.959Z,100711.16
2018-07-08T11:26:12.087Z,100713.23
2018-07-08T11:28:40.277Z,100704.63
2018-07-08T11:31:08.602Z,100704.69
2018-07-08T11:33:36.695Z,100693.84
2018-07-08T11:36:04.792Z,100702.95
2018-07-08T11:38:33.154Z,100695.89
2018-07-08T11:41:01.270Z,100696.27
2018-07-08T11:43:29.915Z,100700.14
2018-07-08T11:45:57.984Z,100688.48
2018-07-08T11:48:26.131Z,100697.55
2018-07-08T11:50:54.247Z,100693.40
2018-07-08T11:53:22.364Z,100698.75
2018-07-08T11:55:50.420Z,100689.38
2018-07-08T11:58:18.515Z,100691.61
2018-07-08T12:00:46.590Z,100683.08
2018-07-08T12:03:14.888Z,100693.45
2018-07-08T12:05:43.085Z,100685.38
2018-07-08T12:08:11.504Z,100688.58
2018-07-08T12:10:40.046Z,100678.33
2018-07-08T12:13:08.292Z,100688.14
2018-07-08T12:15:36.436Z,100691.07
2018-07-08T12:18:04.879Z,100686.95
2018-07-08T12:20:33.461Z,100677.06
2018-07-08T12:23:01.524Z,100684.27
2018-07-08T12:25:29.614Z,100677.51
2018-07-08T12:27:57.671Z,100665.81
2018-07-08T12:30:25.778Z,100673.97
2018-07-08T12:32:53.895Z,100666.86
2018-07-08T12:35:22.063Z,100658.76
2018-07-08T12:37:50.136Z,100665.86
2018-07-08T12:40:18.215Z,100664.06
2018-07-08T12:42:46.271Z,100671.10
2018-07-08T12:45:14.389Z,100662.71
2018-07-08T12:47:42.455Z,100663.97
2018-07-08T12:50:10.528Z,100659.33
2018-07-08T12:52:38.846Z,100654.49
2018-07-08T12:55:06.914Z,100657.03
2018-07-08T12:57:35.401Z,100659.84
2018-07-08T13:00:03.880Z,100650.09
2018-07-08T13:02:31.968Z,100657.22
2018-07-08T13:05:00.734Z,100651.20
2018-07-08T13:07:28.828Z,100650.97
2018-07-08T13:09:56.973Z,100653.78
2018-07-08T13:12:25.074Z,100651.07
2018-07-08T13:14:53.124Z,100655.39
2018-07-08T13:17:21.191Z,100646.00
2018-07-08T13:19:49.365Z,100651.22
2018-07-08T13:22:17.499Z,100637.64
2018-07-08T13:24:45.650Z,100635.86
2018-07-08T13:27:13.899Z,100636.77
2018-07-08T13:29:41.966Z,100634.63
2018-07-08T13:32:10.153Z,100643.34
2018-07-08T13:34:38.334Z,100628.84
2018-07-08T13:37:06.479Z,100624.47
2018-07-08T13:39:34.628Z,100623.97
2018-07-08T13:42:02.710Z,100613.81
2018-07-08T13:44:31.668Z,100617.32
2018-07-08T13:46:59.808Z,100617.77
2018-07-08T13:49:27.940Z,100625.09
2018-07-08T13:51:55.995Z,100611.83
2018-07-08T13:54:24.099Z,100619.45
2018-07-08T13:56:52.186Z,100609.94
2018-07-08T13:59:20.312Z,100614.41
2018-07-08T14:01:48.732Z,100618.91
2018-07-08T14:04:16.830Z,100619.37
2018-07-08T14:06:44.909Z,100611.03
2018-07-08T14:09:13.028Z,100603.23
2018-07-08T14:11:41.039Z,100611.06
2018-07-08T14:14:09.188Z,100609.58
2018-07-08T14:16:37.212Z,100599.70
2018-07-08T14:19:05.354Z,100605.52
2018-07-08T14:21:33.852Z,100606.76
2018-07-08T14:24:01.947Z,100600.44
2018-07-08T14:26:29.995Z,100607.40
2018-07-08T14:28:58.164Z,100596.48
2018-07-08T14:31:26.275Z,100590.13
2018-07-08T14:33:54.348Z,100601.34
2018-07-08T14:36:22.452Z,100595.08
2018-07-08T14:38:50.633Z,100598.47
2018-07-08T14:41:18.724Z,100598.24
2018-07-08T14:43:46.866Z,100587.91
2018-07-08T14:46:15.054Z,100587.11
2018-07-08T14:48:43.032Z,100591.55
2018-07-08T14:51:11.132Z,100591.22
2018-07-08T14:53:39.205Z,100585.37
2018-07-08T14:56:07.287Z,100594.77
2018-07-08T14:58:35.351Z,100587.27
2018-07-08T15:01:03.603Z,100590.93
2018-07-08T15:03:31.993Z,100597.50
2018-07-08T15:06:00.088Z,100593.00
2018-07-08T15:08:28.255Z,100592.41
2018-07-08T15:10:56.423Z,100584.64
2018-07-08T15:13:24.570Z,100587.05
2018-07-08T15:15:52.833Z,100581.61
2018-07-08T15:18:20.833Z,100587.73
2018-07-08T15:20:48.978Z,100580.02
2018-07-08T15:23:17.024Z,100579.35
2018-07-08T15:25:45.124Z,100582.48
2018-07-08T15:28:13.191Z,100577.55
2018-07-08T15:33:32.222Z,100574.53
2018-07-08T15:36:00.300Z,100563.10
2018-07-08T15:38:28.344Z,100561.66
2018-07-08T15:40:56.419Z,100555.75
2018-07-08T15:43:24.539Z,100559.27
2018-07-08T15:45:52.620Z,100555.74
2018-07-08T15:48:20.660Z,100558.32
2018-07-08T15:50:48.742Z,100555.48
2018-07-08T15:53:16.803Z,100556.18
2018-07-08T15:55:44.880Z,100554.27
2018-07-08T15:58:13.043Z,100555.48
2018-07-08T16:00:41.156Z,100561.44
2018-07-08T16:03:09.218Z,100558.34
2018-07-08T16:05:37.359Z,100551.49
2018-07-08T16:08:05.535Z,100548.49
2018-07-08T16:10:33.599Z,100559.16
2018-07-08T16:13:02.268Z,100555.61
2018-07-08T16:15:30.343Z,100559.13
2018-07-08T16:17:58.557Z,100554.61
2018-07-08T16:20:26.639Z,100560.72
2018-07-08T16:22:55.040Z,100553.89
2018-07-08T16:25:23.414Z,100555.36
2018-07-08T16:27:51.550Z,100556.11
2018-07-08T16:30:19.613Z,100558.18
2018-07-08T16:32:47.746Z,100558.61
2018-07-08T16:35:15.807Z,100563.37
2018-07-08T16:37:43.855Z,100561.64
2018-07-08T16:40:14.738Z,100558.27
2018-07-08T16:42:43.538Z,100554.21
2018-07-08T16:45:11.650Z,100559.34
2018-07-08T16:47:39.821Z,100553.08
2018-07-08T16:50:07.899Z,100549.83
2018-07-08T16:52:35.946Z,100549.48
2018-07-08T16:55:04.019Z,100549.39
2018-07-08T16:57:32.513Z,100546.38
2018-07-08T17:00:00.663Z,100544.97
2018-07-08T17:02:28.825Z,100546.33
2018-07-08T17:04:56.960Z,100542.09
2018-07-08T17:07:25.029Z,100540.84
2018-07-08T17:09:53.100Z,100536.48
2018-07-08T17:12:21.151Z,100539.08
2018-07-08T17:14:49.218Z,100543.49
2018-07-08T17:17:17.285Z,100541.61
2018-07-08T17:19:45.392Z,100537.34
2018-07-08T17:22:13.591Z,100537.38
2018-07-08T17:24:42.808Z,100538.02
2018-07-08T17:27:10.885Z,100539.20
2018-07-08T17:29:39.004Z,100544.24
2018-07-08T17:32:07.104Z,100543.81
2018-07-08T17:34:35.156Z,100537.06
2018-07-08T17:37:03.235Z,100536.29
2018-07-08T17:39:31.377Z,100542.91
2018-07-08T17:41:59.483Z,100536.23
2018-07-08T17:44:27.588Z,100536.72
2018-07-08T17:46:55.643Z,100538.59
2018-07-08T17:49:23.711Z,100539.05
2018-07-08T17:51:51.791Z,100539.27
2018-07-08T17:54:21.407Z,100536.59
2018-07-08T17:56:49.452Z,100537.65
2018-07-08T17:59:17.551Z,100530.61
2018-07-08T18:01:45.607Z,100537.57
2018-07-08T18:04:13.762Z,100528.57
2018-07-08T18:06:41.876Z,100534.68
2018-07-08T18:09:09.976Z,100536.27
2018-07-08T18:11:38.048Z,100532.05
2018-07-08T18:14:06.300Z,100543.72
2018-07-08T18:16:34.462Z,100541.66
2018-07-08T18:19:02.783Z,100537.30
2018-07-08T18:21:30.894Z,100544.51
2018-07-08T18:23:59.279Z,100550.12
2018-07-08T18:26:27.342Z,100539.22
2018-07-08T18:28:55.459Z,100543.11
2018-07-08T18:31:23.641Z,100543.39
2018-07-08T18:33:51.731Z,100543.22
2018-07-08T18:36:19.840Z,100543.54
2018-07-08T18:38:47.997Z,100547.73
2018-07-08T18:41:16.054Z,100542.97
2018-07-08T18:43:44.125Z,100548.41
2018-07-08T18:46:12.193Z,100555.07
2018-07-08T18:48:40.303Z,100552.55
2018-07-08T18:51:08.371Z,100549.07
2018-07-08T18:53:36.861Z,100549.61
2018-07-08T18:56:05.029Z,100555.77
2018-07-08T18:58:33.078Z,100552.47
2018-07-08T19:01:01.201Z,100565.55
2018-07-08T19:03:29.322Z,100559.81
2018-07-08T19:05:57.376Z,100560.02
2018-07-08T19:08:25.431Z,100562.77
2018-07-08T19:10:53.484Z,100570.97
2018-07-08T19:13:21.578Z,100568.11
2018-07-08T19:15:49.739Z,100575.74
2018-07-08T19:18:17.861Z,100573.97
2018-07-08T19:20:45.976Z,100573.85
2018-07-08T19:23:14.044Z,100576.55
2018-07-08T19:25:42.191Z,100580.18
2018-07-08T19:28:10.259Z,100581.65
2018-07-08T19:30:38.362Z,100583.02
2018-07-08T19:33:06.448Z,100582.84
2018-07-08T19:35:34.509Z,100582.95
2018-07-08T19:38:03.028Z,100589.42
2018-07-08T19:40:31.131Z,100593.73
2018-07-08T19:42:59.235Z,100589.83
2018-07-08T19:45:27.304Z,100598.97
2018-07-08T19:47:55.451Z,100595.09
2018-07-08T19:50:23.567Z,100606.23
2018-07-08T19:52:51.668Z,100599.33
2018-07-08T19:55:19.723Z,100593.83
2018-07-08T19:57:47.880Z,100598.52
2018-07-08T20:00:15.980Z,100601.59
2018-07-08T20:02:44.048Z,100607.19
2018-07-08T20:05:12.099Z,100606.71
2018-07-08T20:07:40.220Z,100605.68
2018-07-08T20:10:08.207Z,100612.02
2018-07-08T20:12:36.277Z,100612.78
2018-07-08T20:15:04.334Z,100613.56
2018-07-08T20:17:33.321Z,100617.63
2018-07-08T20:20:01.390Z,100617.13
2018-07-08T20:22:29.466Z,100611.97
2018-07-08T20:24:57.542Z,100620.41
2018-07-08T20:27:25.590Z,100619.27
2018-07-08T20:29:53.644Z,100621.20
2018-07-08T20:32:21.788Z,100619.38
2018-07-08T20:34:49.851Z,100623.94
2018-07-08T20:37:17.952Z,100629.27
2018-07-08T20:39:46.008Z,100635.67
2018-07-08T20:42:14.094Z,100638.05
2018-07-08T20:44:42.167Z,100635.77
2018-07-08T20:47:10.245Z,100641.29
2018-07-08T20:49:38.339Z,100643.99
2018-07-08T20:52:06.383Z,100647.09
2018-07-08T20:54:34.443Z,100638.72
2018-07-08T20:57:03.621Z,100642.69
2018-07-08T20:59:31.843Z,100650.26
2018-07-08T21:01:59.943Z,100650.70
2018-07-08T21:04:28.020Z,100648.80
2018-07-08T21:06:56.089Z,100649.09
2018-07-08T21:09:24.176Z,100652.11
2018-07-08T21:11:52.274Z,100652.04
2018-07-08T21:14:20.347Z,100656.78
2018-07-08T21:16:48.423Z,100655.60
2018-07-08T21:19:16.540Z,100649.98
2018-07-08T21:21:44.587Z,100649.12
2018-07-08T21:24:12.659Z,100652.38
2018-07-08T21:26:40.711Z,100649.29
2018-07-08T21:29:08.789Z,100650.70
2018-07-08T21:31:36.857Z,100650.41
2018-07-08T21:34:04.920Z,100655.91
2018-07-08T21:36:33.497Z,100654.72
2018-07-08T21:39:01.554Z,100662.22
2018-07-08T21:41:29.619Z,100659.85
2018-07-08T21:43:57.667Z,100658.63
2018-07-08T21:46:25.728Z,100657.91
2018-07-08T21:48:53.798Z,100661.83
2018-07-08T21:51:21.864Z,100658.56
2018-07-08T21:53:49.946Z,100663.46
2018-07-08T21:56:18.050Z,100666.27
2018-07-08T21:58:46.152Z,100667.09
2018-07-08T22:01:16.204Z,100667.63
2018-07-08T22:03:44.923Z,100674.55
2018-07-08T22:06:13.528Z,100677.37
2018-07-08T22:08:41.591Z,100673.20
2018-07-08T22:11:10.167Z,100672.64
2018-07-08T22:13:38.849Z,100675.56
2018-07-08T22:16:07.049Z,100674.11
2018-07-08T22:18:35.476Z,100674.45
2018-07-08T22:21:04.295Z,100675.45
2018-07-08T22:23:32.768Z,100677.16
2018-07-08T22:26:01.209Z,100679.38
2018-07-08T22:28:29.417Z,100682.55
2018-07-08T22:30:57.477Z,100675.95
2018-07-08T22:33:25.579Z,100677.85
2018-07-08T22:35:53.654Z,100679.85
2018-07-08T22:38:21.834Z,100684.13
2018-07-08T22:40:49.939Z,100684.16
2018-07-08T22:43:18.060Z,100677.28
2018-07-08T22:45:46.146Z,100679.44
2018-07-08T22:48:14.251Z,100679.88
2018-07-08T22:50:42.291Z,100685.92
2018-07-08T22:53:10.367Z,100687.31
2018-07-08T22:55:38.416Z,100688.62
2018-07-08T22:58:06.550Z,100680.67
2018-07-08T23:00:46.020Z,100680.70
2018-07-08T23:04:25.149Z,100689.09
2018-07-08T23:06:53.294Z,100679.52
2018-07-08T23:09:22.077Z,100679.52
2018-07-08T23:11:50.788Z,100685.22
2018-07-08T23:14:20.592Z,100682.59
2018-07-08T23:16:51.257Z,100684.77
2018-07-08T23:19:19.687Z,100688.23
2018-07-08T23:21:48.446Z,100683.91
2018-07-08T23:24:16.542Z,100683.45
2018-07-08T23:26:44.680Z,100685.61
2018-07-08T23:29:12.740Z,100679.06
2018-07-08T23:31:40.875Z,100679.57
2018-07-08T23:34:08.900Z,100678.25
2018-07-08T23:36:37.595Z,100679.98
2018-07-08T23:39:06.131Z,100675.64
2018-07-08T23:41:34.574Z,100672.62
2018-07-08T23:44:02.688Z,100672.19
2018-07-08T23:46:30.810Z,100671.75
2018-07-08T23:48:59.796Z,100672.20
2018-07-08T23:51:28.155Z,100673.08
2018-07-08T23:53:56.289Z,100675.66
2018-07-08T23:56:24.611Z,100671.27
2018-07-08T23:58:52.999Z,100672.59
